sensor_id;sensor_type;location;lat;lon;timestamp;temperature;humidity
80234;DHT22;69712;42.142;24.766;2023-12-20T00:01:26;5.40;69.20
80234;DHT22;69712;42.142;24.766;2023-12-20T00:03:52;5.50;69.30
80234;DHT22;69712;42.142;24.766;2023-12-20T00:06:18;5.20;69.50
80234;DHT22;69712;42.142;24.766;2023-12-20T00:08:44;5.10;69.90
80234;DHT22;69712;42.142;24.766;2023-12-20T00:11:09;5.10;70.10
80234;DHT22;69712;42.142;24.766;2023-12-20T00:13:35;5.20;70.20
80234;DHT22;69712;42.142;24.766;2023-12-20T00:16:01;5.20;69.80
80234;DHT22;69712;42.142;24.766;2023-12-20T00:18:27;5.20;70.00
80234;DHT22;69712;42.142;24.766;2023-12-20T00:20:52;5.10;70.30
80234;DHT22;69712;42.142;24.766;2023-12-20T00:23:18;5.00;70.70
80234;DHT22;69712;42.142;24.766;2023-12-20T00:25:44;5.00;71.00
80234;DHT22;69712;42.142;24.766;2023-12-20T00:28:10;5.00;70.10
80234;DHT22;69712;42.142;24.766;2023-12-20T00:30:36;4.90;69.70
80234;DHT22;69712;42.142;24.766;2023-12-20T00:33:01;5.10;70.10
80234;DHT22;69712;42.142;24.766;2023-12-20T00:35:28;5.00;70.40
80234;DHT22;69712;42.142;24.766;2023-12-20T00:37:53;4.90;70.40
80234;DHT22;69712;42.142;24.766;2023-12-20T00:40:19;5.00;70.60
80234;DHT22;69712;42.142;24.766;2023-12-20T00:42:46;5.10;69.90
80234;DHT22;69712;42.142;24.766;2023-12-20T00:45:12;5.20;69.80
80234;DHT22;69712;42.142;24.766;2023-12-20T00:47:38;5.30;69.60
80234;DHT22;69712;42.142;24.766;2023-12-20T00:50:05;5.20;70.10
80234;DHT22;69712;42.142;24.766;2023-12-20T00:52:30;5.40;69.40
80234;DHT22;69712;42.142;24.766;2023-12-20T00:54:56;5.30;69.20
80234;DHT22;69712;42.142;24.766;2023-12-20T00:57:22;5.30;69.20
80234;DHT22;69712;42.142;24.766;2023-12-20T00:59:48;5.10;69.00
80234;DHT22;69712;42.142;24.766;2023-12-20T01:02:13;5.10;69.10
80234;DHT22;69712;42.142;24.766;2023-12-20T01:04:39;5.30;69.00
80234;DHT22;69712;42.142;24.766;2023-12-20T01:07:05;5.30;68.80
80234;DHT22;69712;42.142;24.766;2023-12-20T01:09:31;5.40;68.70
80234;DHT22;69712;42.142;24.766;2023-12-20T01:11:56;5.30;69.20
80234;DHT22;69712;42.142;24.766;2023-12-20T01:14:22;5.20;69.30
80234;DHT22;69712;42.142;24.766;2023-12-20T01:16:48;5.30;69.40
80234;DHT22;69712;42.142;24.766;2023-12-20T01:19:14;5.20;69.20
80234;DHT22;69712;42.142;24.766;2023-12-20T01:21:40;5.10;69.30
80234;DHT22;69712;42.142;24.766;2023-12-20T01:24:06;5.10;69.20
80234;DHT22;69712;42.142;24.766;2023-12-20T01:26:32;5.00;69.30
80234;DHT22;69712;42.142;24.766;2023-12-20T01:28:57;4.80;69.30
80234;DHT22;69712;42.142;24.766;2023-12-20T01:31:23;4.80;70.10
80234;DHT22;69712;42.142;24.766;2023-12-20T01:33:49;4.80;70.10
80234;DHT22;69712;42.142;24.766;2023-12-20T01:36:15;4.70;70.50
80234;DHT22;69712;42.142;24.766;2023-12-20T01:38:41;4.70;70.50
80234;DHT22;69712;42.142;24.766;2023-12-20T01:41:07;4.90;69.80
80234;DHT22;69712;42.142;24.766;2023-12-20T01:43:33;4.80;69.90
80234;DHT22;69712;42.142;24.766;2023-12-20T01:45:59;4.10;71.00
80234;DHT22;69712;42.142;24.766;2023-12-20T01:48:25;4.20;71.70
80234;DHT22;69712;42.142;24.766;2023-12-20T01:50:51;3.80;72.80
80234;DHT22;69712;42.142;24.766;2023-12-20T01:53:19;4.00;72.30
80234;DHT22;69712;42.142;24.766;2023-12-20T01:55:45;3.80;73.00
80234;DHT22;69712;42.142;24.766;2023-12-20T01:58:13;3.80;73.50
80234;DHT22;69712;42.142;24.766;2023-12-20T02:00:39;4.10;72.80
80234;DHT22;69712;42.142;24.766;2023-12-20T02:03:05;4.10;72.50
80234;DHT22;69712;42.142;24.766;2023-12-20T02:05:32;4.20;72.10
80234;DHT22;69712;42.142;24.766;2023-12-20T02:07:58;4.40;72.30
80234;DHT22;69712;42.142;24.766;2023-12-20T02:10:24;4.30;70.90
80234;DHT22;69712;42.142;24.766;2023-12-20T02:12:50;4.40;70.70
80234;DHT22;69712;42.142;24.766;2023-12-20T02:15:16;4.40;71.00
80234;DHT22;69712;42.142;24.766;2023-12-20T02:17:42;4.70;70.00
80234;DHT22;69712;42.142;24.766;2023-12-20T02:20:09;4.70;69.60
80234;DHT22;69712;42.142;24.766;2023-12-20T02:22:35;4.60;69.30
80234;DHT22;69712;42.142;24.766;2023-12-20T02:25:01;4.40;69.70
80234;DHT22;69712;42.142;24.766;2023-12-20T02:27:27;4.60;70.00
80234;DHT22;69712;42.142;24.766;2023-12-20T02:29:54;4.70;69.30
80234;DHT22;69712;42.142;24.766;2023-12-20T02:32:21;4.80;69.10
80234;DHT22;69712;42.142;24.766;2023-12-20T02:34:48;4.80;69.20
80234;DHT22;69712;42.142;24.766;2023-12-20T02:37:14;4.60;69.10
80234;DHT22;69712;42.142;24.766;2023-12-20T02:39:40;4.70;69.20
80234;DHT22;69712;42.142;24.766;2023-12-20T02:42:06;4.50;69.60
80234;DHT22;69712;42.142;24.766;2023-12-20T02:44:31;4.20;70.20
80234;DHT22;69712;42.142;24.766;2023-12-20T02:46:57;4.10;70.80
80234;DHT22;69712;42.142;24.766;2023-12-20T02:49:23;3.90;71.80
80234;DHT22;69712;42.142;24.766;2023-12-20T02:51:49;3.80;72.00
80234;DHT22;69712;42.142;24.766;2023-12-20T02:54:14;3.80;72.50
80234;DHT22;69712;42.142;24.766;2023-12-20T02:56:40;4.00;72.00
80234;DHT22;69712;42.142;24.766;2023-12-20T02:59:06;4.10;71.90
80234;DHT22;69712;42.142;24.766;2023-12-20T03:01:34;4.00;71.70
80234;DHT22;69712;42.142;24.766;2023-12-20T03:04:01;4.00;71.50
80234;DHT22;69712;42.142;24.766;2023-12-20T03:06:27;4.10;71.20
80234;DHT22;69712;42.142;24.766;2023-12-20T03:08:52;4.00;71.40
80234;DHT22;69712;42.142;24.766;2023-12-20T03:11:18;4.00;70.90
80234;DHT22;69712;42.142;24.766;2023-12-20T03:13:44;4.00;70.70
80234;DHT22;69712;42.142;24.766;2023-12-20T03:16:13;3.90;70.90
80234;DHT22;69712;42.142;24.766;2023-12-20T03:18:40;4.10;70.80
80234;DHT22;69712;42.142;24.766;2023-12-20T03:21:06;4.00;70.90
80234;DHT22;69712;42.142;24.766;2023-12-20T03:23:32;4.10;71.00
80234;DHT22;69712;42.142;24.766;2023-12-20T03:26:00;4.10;70.10
80234;DHT22;69712;42.142;24.766;2023-12-20T03:28:27;4.20;71.00
80234;DHT22;69712;42.142;24.766;2023-12-20T03:30:53;4.20;69.40
80234;DHT22;69712;42.142;24.766;2023-12-20T03:33:19;4.00;69.70
80234;DHT22;69712;42.142;24.766;2023-12-20T03:35:44;3.70;70.70
80234;DHT22;69712;42.142;24.766;2023-12-20T03:38:10;3.50;71.70
80234;DHT22;69712;42.142;24.766;2023-12-20T03:40:36;3.30;72.90
80234;DHT22;69712;42.142;24.766;2023-12-20T03:43:02;3.50;72.70
80234;DHT22;69712;42.142;24.766;2023-12-20T03:45:28;3.60;72.20
80234;DHT22;69712;42.142;24.766;2023-12-20T03:47:53;3.50;71.60
80234;DHT22;69712;42.142;24.766;2023-12-20T03:50:24;3.10;72.00
80234;DHT22;69712;42.142;24.766;2023-12-20T03:52:49;3.10;72.70
80234;DHT22;69712;42.142;24.766;2023-12-20T03:55:16;3.30;72.30
80234;DHT22;69712;42.142;24.766;2023-12-20T03:57:41;3.50;72.00
80234;DHT22;69712;42.142;24.766;2023-12-20T04:00:08;3.60;71.80
80234;DHT22;69712;42.142;24.766;2023-12-20T04:02:40;3.60;71.20
80234;DHT22;69712;42.142;24.766;2023-12-20T04:05:06;3.70;70.50
80234;DHT22;69712;42.142;24.766;2023-12-20T04:07:33;3.70;70.50
80234;DHT22;69712;42.142;24.766;2023-12-20T04:09:58;3.80;70.60
80234;DHT22;69712;42.142;24.766;2023-12-20T04:12:24;3.80;70.20
80234;DHT22;69712;42.142;24.766;2023-12-20T04:14:50;3.40;71.40
80234;DHT22;69712;42.142;24.766;2023-12-20T04:17:16;3.40;71.50
80234;DHT22;69712;42.142;24.766;2023-12-20T04:19:42;3.20;72.00
80234;DHT22;69712;42.142;24.766;2023-12-20T04:22:08;3.40;71.70
80234;DHT22;69712;42.142;24.766;2023-12-20T04:24:34;3.20;71.70
80234;DHT22;69712;42.142;24.766;2023-12-20T04:27:00;2.80;73.20
80234;DHT22;69712;42.142;24.766;2023-12-20T04:29:26;3.00;73.80
80234;DHT22;69712;42.142;24.766;2023-12-20T04:31:52;3.00;73.40
80234;DHT22;69712;42.142;24.766;2023-12-20T04:34:18;3.00;73.10
80234;DHT22;69712;42.142;24.766;2023-12-20T04:36:44;3.10;73.10
80234;DHT22;69712;42.142;24.766;2023-12-20T04:39:13;3.10;72.70
80234;DHT22;69712;42.142;24.766;2023-12-20T04:41:40;3.20;72.70
80234;DHT22;69712;42.142;24.766;2023-12-20T04:44:06;3.40;72.30
80234;DHT22;69712;42.142;24.766;2023-12-20T04:46:32;3.60;71.50
80234;DHT22;69712;42.142;24.766;2023-12-20T04:48:58;3.50;71.00
80234;DHT22;69712;42.142;24.766;2023-12-20T04:51:24;3.20;71.20
80234;DHT22;69712;42.142;24.766;2023-12-20T04:53:49;3.30;72.00
80234;DHT22;69712;42.142;24.766;2023-12-20T04:56:15;3.30;72.10
80234;DHT22;69712;42.142;24.766;2023-12-20T04:58:42;3.50;71.40
80234;DHT22;69712;42.142;24.766;2023-12-20T05:01:11;3.30;71.00
80234;DHT22;69712;42.142;24.766;2023-12-20T05:03:37;3.00;71.90
80234;DHT22;69712;42.142;24.766;2023-12-20T05:06:03;3.10;72.60
80234;DHT22;69712;42.142;24.766;2023-12-20T05:08:29;2.80;73.70
80234;DHT22;69712;42.142;24.766;2023-12-20T05:10:55;3.00;76.70
80234;DHT22;69712;42.142;24.766;2023-12-20T05:13:21;3.10;74.10
80234;DHT22;69712;42.142;24.766;2023-12-20T05:15:47;3.20;73.40
80234;DHT22;69712;42.142;24.766;2023-12-20T05:18:13;3.20;72.40
80234;DHT22;69712;42.142;24.766;2023-12-20T05:20:39;3.10;73.30
80234;DHT22;69712;42.142;24.766;2023-12-20T05:23:06;3.30;72.60
80234;DHT22;69712;42.142;24.766;2023-12-20T05:25:32;3.40;71.90
80234;DHT22;69712;42.142;24.766;2023-12-20T05:27:57;3.40;71.30
80234;DHT22;69712;42.142;24.766;2023-12-20T05:30:23;3.40;71.20
80234;DHT22;69712;42.142;24.766;2023-12-20T05:32:49;3.50;71.10
80234;DHT22;69712;42.142;24.766;2023-12-20T05:35:15;3.50;70.70
80234;DHT22;69712;42.142;24.766;2023-12-20T05:37:41;3.50;70.90
80234;DHT22;69712;42.142;24.766;2023-12-20T05:40:08;3.70;70.70
80234;DHT22;69712;42.142;24.766;2023-12-20T05:42:37;3.20;71.20
80234;DHT22;69712;42.142;24.766;2023-12-20T05:45:04;3.10;72.30
80234;DHT22;69712;42.142;24.766;2023-12-20T05:47:30;3.20;72.30
80234;DHT22;69712;42.142;24.766;2023-12-20T05:49:56;3.00;72.60
80234;DHT22;69712;42.142;24.766;2023-12-20T05:52:22;3.00;73.70
80234;DHT22;69712;42.142;24.766;2023-12-20T05:54:48;3.20;72.60
80234;DHT22;69712;42.142;24.766;2023-12-20T05:57:14;3.30;72.30
80234;DHT22;69712;42.142;24.766;2023-12-20T05:59:40;3.40;71.70
80234;DHT22;69712;42.142;24.766;2023-12-20T06:02:05;3.50;71.50
80234;DHT22;69712;42.142;24.766;2023-12-20T06:04:32;3.60;71.20
80234;DHT22;69712;42.142;24.766;2023-12-20T06:06:58;3.70;70.80
80234;DHT22;69712;42.142;24.766;2023-12-20T06:09:43;3.80;70.30
80234;DHT22;69712;42.142;24.766;2023-12-20T06:12:09;3.70;70.20
80234;DHT22;69712;42.142;24.766;2023-12-20T06:14:35;3.70;70.10
80234;DHT22;69712;42.142;24.766;2023-12-20T06:17:01;3.90;69.90
80234;DHT22;69712;42.142;24.766;2023-12-20T06:19:27;3.90;69.90
80234;DHT22;69712;42.142;24.766;2023-12-20T06:21:53;3.60;70.40
80234;DHT22;69712;42.142;24.766;2023-12-20T06:24:19;3.50;71.10
80234;DHT22;69712;42.142;24.766;2023-12-20T06:26:45;3.60;71.30
80234;DHT22;69712;42.142;24.766;2023-12-20T06:29:12;3.50;71.30
80234;DHT22;69712;42.142;24.766;2023-12-20T06:31:38;3.50;72.40
80234;DHT22;69712;42.142;24.766;2023-12-20T06:34:04;3.50;72.20
80234;DHT22;69712;42.142;24.766;2023-12-20T06:36:29;3.60;72.10
80234;DHT22;69712;42.142;24.766;2023-12-20T06:38:55;3.80;71.70
80234;DHT22;69712;42.142;24.766;2023-12-20T06:41:21;4.00;71.20
80234;DHT22;69712;42.142;24.766;2023-12-20T06:43:50;4.00;70.60
80234;DHT22;69712;42.142;24.766;2023-12-20T06:46:15;4.10;70.20
80234;DHT22;69712;42.142;24.766;2023-12-20T06:48:42;4.50;70.10
80234;DHT22;69712;42.142;24.766;2023-12-20T06:51:14;5.00;69.20
80234;DHT22;69712;42.142;24.766;2023-12-20T06:53:40;5.40;68.90
80234;DHT22;69712;42.142;24.766;2023-12-20T06:56:06;5.80;66.80
80234;DHT22;69712;42.142;24.766;2023-12-20T06:58:33;6.30;65.00
80234;DHT22;69712;42.142;24.766;2023-12-20T07:00:58;6.50;63.20
80234;DHT22;69712;42.142;24.766;2023-12-20T07:03:24;6.40;62.80
80234;DHT22;69712;42.142;24.766;2023-12-20T07:05:50;6.30;63.30
80234;DHT22;69712;42.142;24.766;2023-12-20T07:08:16;6.30;62.80
80234;DHT22;69712;42.142;24.766;2023-12-20T07:10:42;6.40;62.90
80234;DHT22;69712;42.142;24.766;2023-12-20T07:13:07;6.30;63.20
80234;DHT22;69712;42.142;24.766;2023-12-20T07:15:33;6.50;63.10
80234;DHT22;69712;42.142;24.766;2023-12-20T07:17:59;6.80;62.70
80234;DHT22;69712;42.142;24.766;2023-12-20T07:20:26;7.30;62.00
80234;DHT22;69712;42.142;24.766;2023-12-20T07:22:52;8.10;59.70
80234;DHT22;69712;42.142;24.766;2023-12-20T07:25:17;8.70;57.80
80234;DHT22;69712;42.142;24.766;2023-12-20T07:27:43;9.40;55.80
80234;DHT22;69712;42.142;24.766;2023-12-20T07:30:09;10.30;53.00
80234;DHT22;69712;42.142;24.766;2023-12-20T07:32:35;10.60;52.70
80234;DHT22;69712;42.142;24.766;2023-12-20T07:35:01;10.50;51.10
80234;DHT22;69712;42.142;24.766;2023-12-20T07:37:28;10.60;50.90
80234;DHT22;69712;42.142;24.766;2023-12-20T07:39:54;11.10;50.40
80234;DHT22;69712;42.142;24.766;2023-12-20T07:42:20;10.50;49.70
80234;DHT22;69712;42.142;24.766;2023-12-20T07:44:47;10.10;50.30
80234;DHT22;69712;42.142;24.766;2023-12-20T07:47:13;10.10;51.20
80234;DHT22;69712;42.142;24.766;2023-12-20T07:49:42;10.00;51.00
80234;DHT22;69712;42.142;24.766;2023-12-20T07:52:08;9.80;52.10
80234;DHT22;69712;42.142;24.766;2023-12-20T07:54:34;10.40;51.20
80234;DHT22;69712;42.142;24.766;2023-12-20T07:57:00;11.40;49.00
80234;DHT22;69712;42.142;24.766;2023-12-20T07:59:26;12.50;46.90
80234;DHT22;69712;42.142;24.766;2023-12-20T08:01:51;13.80;43.30
80234;DHT22;69712;42.142;24.766;2023-12-20T08:04:17;15.60;39.80
80234;DHT22;69712;42.142;24.766;2023-12-20T08:06:43;16.50;37.40
80234;DHT22;69712;42.142;24.766;2023-12-20T08:09:09;17.20;35.20
80234;DHT22;69712;42.142;24.766;2023-12-20T08:11:35;17.30;34.30
80234;DHT22;69712;42.142;24.766;2023-12-20T08:14:01;16.60;35.10
80234;DHT22;69712;42.142;24.766;2023-12-20T08:16:27;16.30;35.90
80234;DHT22;69712;42.142;24.766;2023-12-20T08:18:53;16.20;36.20
80234;DHT22;69712;42.142;24.766;2023-12-20T08:21:19;16.80;35.50
80234;DHT22;69712;42.142;24.766;2023-12-20T08:23:46;16.90;35.00
80234;DHT22;69712;42.142;24.766;2023-12-20T08:26:13;16.60;34.90
80234;DHT22;69712;42.142;24.766;2023-12-20T08:28:38;17.00;34.80
80234;DHT22;69712;42.142;24.766;2023-12-20T08:31:04;18.50;32.40
80234;DHT22;69712;42.142;24.766;2023-12-20T08:33:30;19.70;31.50
80234;DHT22;69712;42.142;24.766;2023-12-20T08:35:56;20.30;29.10
80234;DHT22;69712;42.142;24.766;2023-12-20T08:38:21;20.20;29.70
80234;DHT22;69712;42.142;24.766;2023-12-20T08:40:47;21.30;28.90
80234;DHT22;69712;42.142;24.766;2023-12-20T08:43:14;22.10;27.70
80234;DHT22;69712;42.142;24.766;2023-12-20T08:45:39;21.90;28.00
80234;DHT22;69712;42.142;24.766;2023-12-20T08:48:06;22.40;27.20
80234;DHT22;69712;42.142;24.766;2023-12-20T08:50:32;21.60;26.70
80234;DHT22;69712;42.142;24.766;2023-12-20T08:52:57;20.00;29.10
80234;DHT22;69712;42.142;24.766;2023-12-20T08:55:23;19.20;29.30
80234;DHT22;69712;42.142;24.766;2023-12-20T08:57:49;18.60;30.80
80234;DHT22;69712;42.142;24.766;2023-12-20T09:00:16;17.50;31.80
80234;DHT22;69712;42.142;24.766;2023-12-20T09:02:42;16.90;33.20
80234;DHT22;69712;42.142;24.766;2023-12-20T09:05:08;16.60;34.20
80234;DHT22;69712;42.142;24.766;2023-12-20T09:07:34;16.00;35.20
80234;DHT22;69712;42.142;24.766;2023-12-20T09:10:00;15.80;36.40
80234;DHT22;69712;42.142;24.766;2023-12-20T09:12:26;14.80;38.00
80234;DHT22;69712;42.142;24.766;2023-12-20T09:14:52;14.40;39.70
80234;DHT22;69712;42.142;24.766;2023-12-20T09:17:18;14.00;39.90
80234;DHT22;69712;42.142;24.766;2023-12-20T09:19:44;14.70;39.80
80234;DHT22;69712;42.142;24.766;2023-12-20T09:22:11;15.90;38.10
80234;DHT22;69712;42.142;24.766;2023-12-20T09:24:48;17.40;35.30
80234;DHT22;69712;42.142;24.766;2023-12-20T09:27:14;18.60;32.70
80234;DHT22;69712;42.142;24.766;2023-12-20T09:29:40;19.10;31.60
80234;DHT22;69712;42.142;24.766;2023-12-20T09:32:05;19.80;30.30
80234;DHT22;69712;42.142;24.766;2023-12-20T09:34:31;19.60;29.90
80234;DHT22;69712;42.142;24.766;2023-12-20T09:36:57;19.10;30.00
80234;DHT22;69712;42.142;24.766;2023-12-20T09:39:23;18.80;31.30
80234;DHT22;69712;42.142;24.766;2023-12-20T09:42:03;19.00;30.50
80234;DHT22;69712;42.142;24.766;2023-12-20T09:44:31;19.20;30.80
80234;DHT22;69712;42.142;24.766;2023-12-20T09:46:57;20.50;28.90
80234;DHT22;69712;42.142;24.766;2023-12-20T09:49:23;20.50;29.10
80234;DHT22;69712;42.142;24.766;2023-12-20T09:51:53;20.60;28.70
80234;DHT22;69712;42.142;24.766;2023-12-20T09:54:20;21.10;28.60
80234;DHT22;69712;42.142;24.766;2023-12-20T09:56:46;20.70;28.40
80234;DHT22;69712;42.142;24.766;2023-12-20T09:59:13;20.40;28.50
80234;DHT22;69712;42.142;24.766;2023-12-20T10:01:42;20.80;28.50
80234;DHT22;69712;42.142;24.766;2023-12-20T10:04:10;20.60;28.70
80234;DHT22;69712;42.142;24.766;2023-12-20T10:06:42;20.30;28.90
80234;DHT22;69712;42.142;24.766;2023-12-20T10:09:11;20.40;29.60
80234;DHT22;69712;42.142;24.766;2023-12-20T10:11:38;19.60;30.20
80234;DHT22;69712;42.142;24.766;2023-12-20T10:14:05;20.60;28.90
80234;DHT22;69712;42.142;24.766;2023-12-20T10:16:32;20.50;28.20
80234;DHT22;69712;42.142;24.766;2023-12-20T10:18:58;21.40;28.10
80234;DHT22;69712;42.142;24.766;2023-12-20T10:21:25;22.00;26.80
80234;DHT22;69712;42.142;24.766;2023-12-20T10:23:57;21.10;27.60
80234;DHT22;69712;42.142;24.766;2023-12-20T10:26:25;21.20;26.90
80234;DHT22;69712;42.142;24.766;2023-12-20T10:28:53;20.90;28.40
80234;DHT22;69712;42.142;24.766;2023-12-20T10:31:34;21.40;27.80
80234;DHT22;69712;42.142;24.766;2023-12-20T10:34:01;21.10;27.80
80234;DHT22;69712;42.142;24.766;2023-12-20T10:36:29;20.30;27.40
80234;DHT22;69712;42.142;24.766;2023-12-20T10:38:56;19.90;28.00
80234;DHT22;69712;42.142;24.766;2023-12-20T10:41:32;17.80;30.40
80234;DHT22;69712;42.142;24.766;2023-12-20T10:44:02;18.20;30.80
80234;DHT22;69712;42.142;24.766;2023-12-20T10:46:30;17.90;31.40
80234;DHT22;69712;42.142;24.766;2023-12-20T10:48:58;17.40;32.20
80234;DHT22;69712;42.142;24.766;2023-12-20T10:51:24;17.10;32.60
80234;DHT22;69712;42.142;24.766;2023-12-20T10:53:56;16.70;33.70
80234;DHT22;69712;42.142;24.766;2023-12-20T10:56:22;17.00;32.80
80234;DHT22;69712;42.142;24.766;2023-12-20T10:58:52;17.00;33.10
80234;DHT22;69712;42.142;24.766;2023-12-20T11:01:19;16.50;33.80
80234;DHT22;69712;42.142;24.766;2023-12-20T11:03:51;17.20;33.20
80234;DHT22;69712;42.142;24.766;2023-12-20T11:09:24;17.00;33.30
80234;DHT22;69712;42.142;24.766;2023-12-20T11:14:48;16.70;33.90
80234;DHT22;69712;42.142;24.766;2023-12-20T11:17:15;17.20;33.70
80234;DHT22;69712;42.142;24.766;2023-12-20T11:20:04;17.20;33.00
80234;DHT22;69712;42.142;24.766;2023-12-20T11:22:31;17.10;32.40
80234;DHT22;69712;42.142;24.766;2023-12-20T11:25:06;16.40;33.10
80234;DHT22;69712;42.142;24.766;2023-12-20T11:27:35;16.90;34.20
80234;DHT22;69712;42.142;24.766;2023-12-20T11:30:03;16.60;33.90
80234;DHT22;69712;42.142;24.766;2023-12-20T11:32:34;16.50;33.60
80234;DHT22;69712;42.142;24.766;2023-12-20T11:37:36;16.10;34.90
80234;DHT22;69712;42.142;24.766;2023-12-20T11:40:07;15.80;35.50
80234;DHT22;69712;42.142;24.766;2023-12-20T11:42:50;15.90;36.10
80234;DHT22;69712;42.142;24.766;2023-12-20T11:45:22;15.60;36.20
80234;DHT22;69712;42.142;24.766;2023-12-20T11:47:49;15.80;36.20
80234;DHT22;69712;42.142;24.766;2023-12-20T11:50:34;15.60;36.00
80234;DHT22;69712;42.142;24.766;2023-12-20T11:52:59;15.60;36.40
80234;DHT22;69712;42.142;24.766;2023-12-20T11:55:25;15.50;37.10
80234;DHT22;69712;42.142;24.766;2023-12-20T11:57:51;15.30;37.40
80234;DHT22;69712;42.142;24.766;2023-12-20T12:00:18;15.00;38.10
80234;DHT22;69712;42.142;24.766;2023-12-20T12:02:59;15.20;38.70
80234;DHT22;69712;42.142;24.766;2023-12-20T12:05:25;14.70;38.60
80234;DHT22;69712;42.142;24.766;2023-12-20T12:07:51;15.10;39.20
80234;DHT22;69712;42.142;24.766;2023-12-20T12:10:17;14.90;39.10
80234;DHT22;69712;42.142;24.766;2023-12-20T12:12:43;14.90;39.00
80234;DHT22;69712;42.142;24.766;2023-12-20T12:15:08;14.60;41.30
80234;DHT22;69712;42.142;24.766;2023-12-20T12:17:34;14.60;40.50
80234;DHT22;69712;42.142;24.766;2023-12-20T12:20:04;14.40;41.80
80234;DHT22;69712;42.142;24.766;2023-12-20T12:22:30;14.20;43.00
80234;DHT22;69712;42.142;24.766;2023-12-20T12:24:59;14.10;43.30
80234;DHT22;69712;42.142;24.766;2023-12-20T12:27:27;14.00;44.00
80234;DHT22;69712;42.142;24.766;2023-12-20T12:30:03;14.00;44.00
80234;DHT22;69712;42.142;24.766;2023-12-20T12:32:29;14.30;43.50
80234;DHT22;69712;42.142;24.766;2023-12-20T12:34:55;14.20;43.80
80234;DHT22;69712;42.142;24.766;2023-12-20T12:37:22;14.00;44.20
80234;DHT22;69712;42.142;24.766;2023-12-20T12:39:49;13.80;44.40
80234;DHT22;69712;42.142;24.766;2023-12-20T12:42:15;13.90;44.70
80234;DHT22;69712;42.142;24.766;2023-12-20T12:44:41;13.90;44.60
80234;DHT22;69712;42.142;24.766;2023-12-20T12:47:07;13.70;45.00
80234;DHT22;69712;42.142;24.766;2023-12-20T12:49:33;13.20;45.90
80234;DHT22;69712;42.142;24.766;2023-12-20T12:51:59;13.40;45.90
80234;DHT22;69712;42.142;24.766;2023-12-20T12:54:25;13.30;46.00
80234;DHT22;69712;42.142;24.766;2023-12-20T12:56:51;13.50;46.10
80234;DHT22;69712;42.142;24.766;2023-12-20T12:59:19;13.10;48.00
80234;DHT22;69712;42.142;24.766;2023-12-20T13:01:45;13.20;47.20
80234;DHT22;69712;42.142;24.766;2023-12-20T13:04:11;13.10;46.20
80234;DHT22;69712;42.142;24.766;2023-12-20T13:06:37;12.90;46.80
80234;DHT22;69712;42.142;24.766;2023-12-20T13:09:03;13.10;46.90
80234;DHT22;69712;42.142;24.766;2023-12-20T13:11:30;13.00;47.10
80234;DHT22;69712;42.142;24.766;2023-12-20T13:13:57;13.10;47.40
80234;DHT22;69712;42.142;24.766;2023-12-20T13:16:26;13.20;47.10
80234;DHT22;69712;42.142;24.766;2023-12-20T13:18:52;13.10;47.00
80234;DHT22;69712;42.142;24.766;2023-12-20T13:21:17;13.30;46.80
80234;DHT22;69712;42.142;24.766;2023-12-20T13:23:43;13.20;46.70
80234;DHT22;69712;42.142;24.766;2023-12-20T13:26:09;13.10;47.10
80234;DHT22;69712;42.142;24.766;2023-12-20T13:28:35;13.30;47.30
80234;DHT22;69712;42.142;24.766;2023-12-20T13:31:01;13.10;47.10
80234;DHT22;69712;42.142;24.766;2023-12-20T13:33:26;12.90;47.50
80234;DHT22;69712;42.142;24.766;2023-12-20T13:35:52;12.80;47.90
80234;DHT22;69712;42.142;24.766;2023-12-20T13:38:18;12.50;49.00
80234;DHT22;69712;42.142;24.766;2023-12-20T13:40:44;12.30;49.20
80234;DHT22;69712;42.142;24.766;2023-12-20T13:43:10;12.30;50.10
80234;DHT22;69712;42.142;24.766;2023-12-20T13:45:39;12.20;50.00
80234;DHT22;69712;42.142;24.766;2023-12-20T13:48:05;12.40;49.60
80234;DHT22;69712;42.142;24.766;2023-12-20T13:50:31;12.40;49.30
80234;DHT22;69712;42.142;24.766;2023-12-20T13:52:57;12.30;49.20
80234;DHT22;69712;42.142;24.766;2023-12-20T13:55:22;12.20;48.90
80234;DHT22;69712;42.142;24.766;2023-12-20T13:57:51;12.30;49.20
80234;DHT22;69712;42.142;24.766;2023-12-20T14:00:17;12.50;49.30
80234;DHT22;69712;42.142;24.766;2023-12-20T14:02:42;12.40;48.70
80234;DHT22;69712;42.142;24.766;2023-12-20T14:05:09;12.40;48.70
80234;DHT22;69712;42.142;24.766;2023-12-20T14:07:36;12.30;49.10
80234;DHT22;69712;42.142;24.766;2023-12-20T14:10:02;12.40;49.30
80234;DHT22;69712;42.142;24.766;2023-12-20T14:12:28;12.50;48.80
80234;DHT22;69712;42.142;24.766;2023-12-20T14:14:53;12.40;49.00
80234;DHT22;69712;42.142;24.766;2023-12-20T14:17:21;12.40;49.20
80234;DHT22;69712;42.142;24.766;2023-12-20T14:19:47;12.40;49.20
80234;DHT22;69712;42.142;24.766;2023-12-20T14:22:13;12.40;49.60
80234;DHT22;69712;42.142;24.766;2023-12-20T14:24:42;12.20;49.80
80234;DHT22;69712;42.142;24.766;2023-12-20T14:27:08;12.30;50.00
80234;DHT22;69712;42.142;24.766;2023-12-20T14:29:35;11.90;50.40
80234;DHT22;69712;42.142;24.766;2023-12-20T14:32:01;12.00;50.60
80234;DHT22;69712;42.142;24.766;2023-12-20T14:34:29;11.80;50.70
80234;DHT22;69712;42.142;24.766;2023-12-20T14:36:54;11.70;51.10
80234;DHT22;69712;42.142;24.766;2023-12-20T14:39:21;11.30;52.40
80234;DHT22;69712;42.142;24.766;2023-12-20T14:41:47;11.30;52.80
80234;DHT22;69712;42.142;24.766;2023-12-20T14:44:13;11.10;53.50
80234;DHT22;69712;42.142;24.766;2023-12-20T14:46:41;11.00;53.60
80234;DHT22;69712;42.142;24.766;2023-12-20T14:49:07;11.10;53.40
80234;DHT22;69712;42.142;24.766;2023-12-20T14:51:33;11.20;53.20
80234;DHT22;69712;42.142;24.766;2023-12-20T14:53:59;11.10;53.50
80234;DHT22;69712;42.142;24.766;2023-12-20T14:56:25;11.00;53.90
80234;DHT22;69712;42.142;24.766;2023-12-20T14:58:52;10.90;54.00
80234;DHT22;69712;42.142;24.766;2023-12-20T15:01:18;11.10;54.20
80234;DHT22;69712;42.142;24.766;2023-12-20T15:03:47;11.00;53.80
80234;DHT22;69712;42.142;24.766;2023-12-20T15:06:13;11.10;55.00
80234;DHT22;69712;42.142;24.766;2023-12-20T15:08:39;10.70;54.30
80234;DHT22;69712;42.142;24.766;2023-12-20T15:11:05;10.80;54.70
80234;DHT22;69712;42.142;24.766;2023-12-20T15:13:31;11.00;54.20
80234;DHT22;69712;42.142;24.766;2023-12-20T15:15:57;10.80;54.80
80234;DHT22;69712;42.142;24.766;2023-12-20T15:18:22;10.80;54.40
80234;DHT22;69712;42.142;24.766;2023-12-20T15:20:48;10.90;54.40
80234;DHT22;69712;42.142;24.766;2023-12-20T15:23:14;10.90;54.60
80234;DHT22;69712;42.142;24.766;2023-12-20T15:25:40;10.90;54.30
80234;DHT22;69712;42.142;24.766;2023-12-20T15:28:06;10.90;54.10